Time;durP1;ratioP1;P1;durP2;ratioP2;P2;SDS_P1;SDS_P2;PMS_P1;PMS_P2;Temp;Humidity;BMP_temperature;BMP_pressure;BME280_temperature;BME280_humidity;BME280_pressure;Samples;Min_cycle;Max_cycle;Signal;HPM_P1;HPM_P2
2023/12/19 00:00:53;;;;;;;13.70;9.50;;;;;;;;;;5031932;28;20029;-85
2023/12/19 00:03:20;;;;;;;17.20;9.98;;;;;;;;;;5049831;28;20039;-87
2023/12/19 00:05:46;;;;;;;16.52;10.15;;;;;;;;;;5031968;28;20473;-85
2023/12/19 00:08:12;;;;;;;14.10;9.75;;;;;;;;;;5049246;28;20114;-85
2023/12/19 00:10:38;;;;;;;17.02;10.48;;;;;;;;;;5049670;28;20284;-84
2023/12/19 00:13:04;;;;;;;17.90;10.35;;;;;;;;;;5050443;28;20053;-85
2023/12/19 00:15:31;;;;;;;15.13;9.82;;;;;;;;;;5031748;28;20032;-86
2023/12/19 00:17:57;;;;;;;17.70;10.37;;;;;;;;;;5049556;28;20025;-85
2023/12/19 00:20:23;;;;;;;13.18;9.43;;;;;;;;;;5049563;28;20043;-85
2023/12/19 00:22:49;;;;;;;13.15;9.48;;;;;;;;;;5031601;28;20475;-84
2023/12/19 00:25:16;;;;;;;16.85;9.70;;;;;;;;;;5049604;28;20067;-91
2023/12/19 00:27:42;;;;;;;19.65;10.13;;;;;;;;;;5048890;28;20489;-85
2023/12/19 00:30:08;;;;;;;16.92;9.88;;;;;;;;;;5049647;28;20044;-86
2023/12/19 00:32:36;;;;;;;13.63;9.63;;;;;;;;;;5050144;28;20017;-87
2023/12/19 00:35:04;;;;;;;14.82;9.32;;;;;;;;;;5049410;28;20104;-86
2023/12/19 00:37:32;;;;;;;14.52;9.52;;;;;;;;;;5049337;28;20138;-86
2023/12/19 00:40:01;;;;;;;14.93;9.82;;;;;;;;;;5049274;28;20197;-86
2023/12/19 00:42:29;;;;;;;14.35;9.50;;;;;;;;;;5049264;28;20021;-87
2023/12/19 00:44:59;;;;;;;15.13;9.77;;;;;;;;;;5048654;28;20560;-85
2023/12/19 00:47:27;;;;;;;14.65;9.05;;;;;;;;;;5049210;28;20099;-85
2023/12/19 00:49:53;;;;;;;14.68;8.60;;;;;;;;;;5048980;28;20040;-86
2023/12/19 00:52:22;;;;;;;11.02;8.00;;;;;;;;;;5049138;28;20064;-85
2023/12/19 00:54:47;;;;;;;12.73;8.88;;;;;;;;;;5049095;28;20100;-86
2023/12/19 00:57:13;;;;;;;11.48;8.32;;;;;;;;;;5049057;28;20059;-87
2023/12/19 00:59:40;;;;;;;11.52;7.90;;;;;;;;;;5049807;28;20033;-85
2023/12/19 01:02:06;;;;;;;12.68;8.32;;;;;;;;;;5049649;28;20040;-86
2023/12/19 01:04:32;;;;;;;16.13;8.88;;;;;;;;;;5031096;28;20025;-84
2023/12/19 01:06:58;;;;;;;13.80;8.38;;;;;;;;;;5030567;28;20095;-88
2023/12/19 01:09:24;;;;;;;13.02;8.38;;;;;;;;;;5048868;28;20095;-84
2023/12/19 01:11:50;;;;;;;12.20;8.43;;;;;;;;;;5048846;28;20076;-85
2023/12/19 01:14:16;;;;;;;14.07;7.90;;;;;;;;;;5048862;28;20086;-87
2023/12/19 01:16:42;;;;;;;13.23;8.43;;;;;;;;;;5030912;28;20021;-84
2023/12/19 01:19:09;;;;;;;12.77;7.95;;;;;;;;;;5049692;28;20040;-85
2023/12/19 01:21:36;;;;;;;15.25;8.85;;;;;;;;;;5030940;28;20021;-86
2023/12/19 01:24:02;;;;;;;13.48;8.02;;;;;;;;;;5048924;28;20099;-85
2023/12/19 01:26:29;;;;;;;11.55;7.97;;;;;;;;;;5030174;28;20020;-87
2023/12/19 01:28:55;;;;;;;12.45;7.75;;;;;;;;;;5031646;28;20029;-90
2023/12/19 01:31:21;;;;;;;15.32;8.18;;;;;;;;;;5052716;28;20503;-86
2023/12/19 01:33:46;;;;;;;11.07;7.70;;;;;;;;;;5052743;28;20112;-85
2023/12/19 01:36:12;;;;;;;10.80;7.60;;;;;;;;;;5052698;28;20029;-84
2023/12/19 01:38:38;;;;;;;11.32;7.57;;;;;;;;;;5053374;28;20159;-86
2023/12/19 01:41:04;;;;;;;12.07;8.00;;;;;;;;;;5052491;28;20025;-88
2023/12/19 01:43:31;;;;;;;12.20;8.07;;;;;;;;;;5052521;28;20032;-84
2023/12/19 01:45:59;;;;;;;13.38;8.38;;;;;;;;;;5052544;28;20025;-85
2023/12/19 01:48:28;;;;;;;13.10;8.20;;;;;;;;;;5033954;28;20385;-85
2023/12/19 01:50:57;;;;;;;14.23;7.07;;;;;;;;;;5034238;28;20132;-85
2023/12/19 01:53:26;;;;;;;11.35;7.57;;;;;;;;;;5052409;28;20512;-85
2023/12/19 01:55:56;;;;;;;15.35;8.27;;;;;;;;;;5052247;28;20107;-84
2023/12/19 01:58:25;;;;;;;14.55;7.60;;;;;;;;;;5052263;28;20013;-85
2023/12/19 02:00:52;;;;;;;11.50;7.00;;;;;;;;;;5052167;28;20060;-84
2023/12/19 02:03:20;;;;;;;11.82;7.35;;;;;;;;;;5033555;28;20112;-84
2023/12/19 02:05:48;;;;;;;14.02;7.00;;;;;;;;;;5051628;28;20120;-85
2023/12/19 02:08:14;;;;;;;9.70;6.93;;;;;;;;;;5052212;28;20016;-84
2023/12/19 02:10:41;;;;;;;10.98;7.15;;;;;;;;;;5052743;28;20516;-85
2023/12/19 02:13:09;;;;;;;10.43;7.25;;;;;;;;;;5051979;28;20099;-88
2023/12/19 02:15:35;;;;;;;10.93;6.97;;;;;;;;;;5051955;28;20029;-85
2023/12/19 02:18:17;;;;;;;12.75;7.72;;;;;;;;;;5051231;28;20208;-84
2023/12/19 02:20:43;;;;;;;14.32;6.90;;;;;;;;;;5052510;28;20083;-84
2023/12/19 02:23:10;;;;;;;10.38;7.32;;;;;;;;;;5052400;28;20511;-84
2023/12/19 02:25:37;;;;;;;11.85;7.45;;;;;;;;;;5033935;28;20053;-85
2023/12/19 02:28:03;;;;;;;14.52;7.43;;;;;;;;;;5051793;28;20444;-85
2023/12/19 02:30:29;;;;;;;9.23;6.55;;;;;;;;;;5051623;28;20037;-85
2023/12/19 02:32:55;;;;;;;10.13;6.72;;;;;;;;;;5050914;28;20060;-84
2023/12/19 02:35:21;;;;;;;9.07;6.97;;;;;;;;;;5051546;28;20064;-86
2023/12/19 02:37:47;;;;;;;11.25;7.13;;;;;;;;;;5051672;28;20441;-84
2023/12/19 02:40:13;;;;;;;9.60;7.03;;;;;;;;;;5051225;28;20032;-84
2023/12/19 02:42:40;;;;;;;11.35;6.72;;;;;;;;;;5051505;28;20021;-84
2023/12/19 02:45:07;;;;;;;12.23;6.43;;;;;;;;;;5051390;28;20029;-85
2023/12/19 02:47:33;;;;;;;10.55;6.50;;;;;;;;;;5051293;28;20025;-84
2023/12/19 02:49:59;;;;;;;10.57;7.15;;;;;;;;;;5032994;28;20028;-86
2023/12/19 02:52:25;;;;;;;8.23;6.13;;;;;;;;;;5050780;28;20037;-85
2023/12/19 02:54:51;;;;;;;11.40;6.30;;;;;;;;;;5049268;28;20021;-84
2023/12/19 02:57:17;;;;;;;13.45;6.82;;;;;;;;;;5037634;28;20377;-85
2023/12/19 02:59:43;;;;;;;10.25;6.97;;;;;;;;;;5051925;28;20017;-87
2023/12/19 03:02:09;;;;;;;11.77;6.28;;;;;;;;;;5032484;28;20044;-85
2023/12/19 03:04:35;;;;;;;11.23;6.57;;;;;;;;;;5050650;28;20024;-84
2023/12/19 03:07:02;;;;;;;11.80;6.53;;;;;;;;;;5051079;28;20036;-84
2023/12/19 03:09:27;;;;;;;10.63;6.10;;;;;;;;;;5032600;28;20040;-86
2023/12/19 03:12:03;;;;;;;10.20;6.30;;;;;;;;;;5050978;28;20025;-89
2023/12/19 03:14:29;;;;;;;9.88;6.40;;;;;;;;;;5050812;28;20433;-85
2023/12/19 03:16:55;;;;;;;9.30;5.70;;;;;;;;;;5032430;28;20064;-86
2023/12/19 03:19:21;;;;;;;8.02;5.72;;;;;;;;;;5049559;28;20115;-87
2023/12/19 03:21:47;;;;;;;9.65;6.80;;;;;;;;;;5033327;28;20056;-89
2023/12/19 03:24:13;;;;;;;9.30;6.00;;;;;;;;;;5033262;28;20025;-88
2023/12/19 03:26:39;;;;;;;8.32;5.80;;;;;;;;;;5050012;28;20041;-85
2023/12/19 03:29:04;;;;;;;11.20;6.88;;;;;;;;;;5032222;28;20527;-85
2023/12/19 03:31:30;;;;;;;10.50;6.03;;;;;;;;;;5050318;28;20177;-85
2023/12/19 03:33:57;;;;;;;10.20;5.95;;;;;;;;;;5049848;28;20017;-84
2023/12/19 03:36:23;;;;;;;11.48;6.15;;;;;;;;;;5049043;28;20035;-87
2023/12/19 03:38:49;;;;;;;10.43;5.75;;;;;;;;;;5049149;28;20021;-85
2023/12/19 03:41:15;;;;;;;10.30;6.28;;;;;;;;;;5051151;28;20082;-85
2023/12/19 03:43:41;;;;;;;8.52;5.57;;;;;;;;;;5049071;28;20029;-85
2023/12/19 03:46:07;;;;;;;7.65;6.22;;;;;;;;;;5050233;28;20100;-86
2023/12/19 03:48:37;;;;;;;12.80;6.43;;;;;;;;;;5049016;28;20679;-85
2023/12/19 03:51:03;;;;;;;9.43;6.10;;;;;;;;;;5049466;28;20044;-85
2023/12/19 03:53:29;;;;;;;10.00;6.00;;;;;;;;;;5049498;28;20028;-87
2023/12/19 03:55:56;;;;;;;7.28;5.35;;;;;;;;;;5032620;28;20455;-85
2023/12/19 03:58:22;;;;;;;11.00;5.95;;;;;;;;;;5049541;28;20021;-83
2023/12/19 04:00:48;;;;;;;9.65;6.10;;;;;;;;;;5049128;28;20043;-82
2023/12/19 04:03:14;;;;;;;10.45;5.72;;;8.50;99.90;;;;;;5057090;28;20056;-84
2023/12/19 04:05:40;;;;;;;11.38;5.75;;;9.10;99.90;;;;;;5051890;28;20064;-87
2023/12/19 04:08:05;;;;;;;10.05;6.03;;;9.60;99.90;;;;;;5063709;28;20017;-85
2023/12/19 04:10:31;;;;;;;8.63;5.70;;;9.30;99.90;;;;;;5069757;28;20420;-85
2023/12/19 04:12:56;;;;;;;10.65;5.95;;;9.90;99.90;;;;;;5062171;28;20025;-83
2023/12/19 04:15:23;;;;;;;7.65;5.55;;;9.70;99.90;;;;;;5049293;28;20029;-88
2023/12/19 04:17:49;;;;;;;8.80;5.80;;;8.60;99.90;;;;;;5050536;28;20014;-88
2023/12/19 04:20:15;;;;;;;9.38;5.20;;;10.10;99.90;;;;;;5032143;28;20080;-88
2023/12/19 04:22:42;;;;;;;6.65;4.80;;;9.20;99.90;;;;;;5049516;28;20025;-89
2023/12/19 04:25:08;;;;;;;9.48;5.90;;;9.90;99.90;;;;;;5048874;28;20057;-85
2023/12/19 04:27:37;;;;;;;9.68;5.63;;;9.40;99.90;;;;;;5049471;28;20100;-84
2023/12/19 04:30:03;;;;;;;7.18;5.20;;;9.10;99.90;;;;;;5049332;28;20017;-84
2023/12/19 04:32:32;;;;;;;9.45;5.30;;;;;;;;;;5031589;28;20570;-84
2023/12/19 04:34:58;;;;;;;8.77;5.35;;;;;;;;;;5049297;28;20100;-84
2023/12/19 04:37:25;;;;;;;9.52;5.78;;;;;;;;;;5049366;28;20080;-84
2023/12/19 04:39:54;;;;;;;7.50;4.85;;;;;;;;;;5050073;28;20033;-88
2023/12/19 04:42:21;;;;;;;9.68;5.47;;;;;;;;;;5050187;28;20043;-86
2023/12/19 04:44:47;;;;;;;8.60;5.28;;;;;;;;;;5050667;28;20024;-90
2023/12/19 04:47:15;;;;;;;9.50;5.45;;;;;;;;;;5049314;28;20033;-85
2023/12/19 04:49:42;;;;;;;6.60;4.93;;;;;;;;;;5049387;28;20028;-83
2023/12/19 04:52:12;;;;;;;9.60;5.45;;;;;;;;;;5049314;28;20029;-86
2023/12/19 04:54:38;;;;;;;9.98;5.15;;;;;;;;;;5049102;28;20108;-85
2023/12/19 04:57:03;;;;;;;14.05;5.35;;;9.40;99.90;;;;;;5048587;28;20529;-83
2023/12/19 04:59:32;;;;;;;7.07;5.03;;;;;;;;;;5049064;28;20048;-84
2023/12/19 05:01:58;;;;;;;8.63;5.20;;;;;;;;;;5048812;28;20040;-85
2023/12/19 05:04:24;;;;;;;8.18;5.15;;;;;;;;;;5048591;28;20111;-84
2023/12/19 05:06:50;;;;;;;7.75;4.75;;;;;;;;;;5049515;28;20017;-84
2023/12/19 05:09:16;;;;;;;6.70;5.05;;;;;;;;;;5048930;28;20128;-84
2023/12/19 05:11:44;;;;;;;11.88;5.63;;;;;;;;;;5048648;28;20548;-85
2023/12/19 05:14:10;;;;;;;19.05;6.10;;;;;;;;;;5030826;28;20396;-85
2023/12/19 05:16:36;;;;;;;7.72;5.55;;;;;;;;;;5048827;28;20075;-84
2023/12/19 05:19:03;;;;;;;8.30;4.85;;;;;;;;;;5048668;28;20029;-84
2023/12/19 05:21:29;;;;;;;6.72;5.00;;;;;;;;;;5048736;28;20476;-84
2023/12/19 05:23:55;;;;;;;6.32;4.68;;;;;;;;;;5048701;28;20029;-84
2023/12/19 05:26:21;;;;;;;7.93;5.07;;;;;;;;;;5049350;28;20029;-84
2023/12/19 05:28:47;;;;;;;7.90;5.30;;;;;;;;;;5048688;28;20464;-84
2023/12/19 05:31:15;;;;;;;9.98;5.07;;;;;;;;;;5045532;28;20045;-82
2023/12/19 05:33:42;;;;;;;7.45;4.38;;;;;;;;;;5058700;28;20020;-83
2023/12/19 05:36:11;;;;;;;8.15;4.60;;;;;;;;;;5041879;28;20024;-85
2023/12/19 05:38:37;;;;;;;6.85;5.13;;;;;;;;;;5059716;28;20017;-83
2023/12/19 05:41:04;;;;;;;7.07;4.88;;;;;;;;;;5065536;28;20048;-85
2023/12/19 05:43:30;;;;;;;7.30;4.60;;;;;;;;;;5048191;28;20377;-84
2023/12/19 05:45:56;;;;;;;8.32;5.20;;;;;;;;;;5048736;28;20786;-84
2023/12/19 05:48:22;;;;;;;8.10;4.63;;;;;;;;;;5049385;28;20048;-83
2023/12/19 05:50:49;;;;;;;6.60;4.72;;;;;;;;;;5042627;28;20036;-84
2023/12/19 05:53:15;;;;;;;7.45;4.88;;;;;;;;;;5047953;28;20408;-84
2023/12/19 05:55:41;;;;;;;9.20;4.85;;;;;;;;;;5048543;28;20479;-83
2023/12/19 05:58:08;;;;;;;6.45;4.70;;;;;;;;;;5030416;28;20017;-85
2023/12/19 06:00:35;;;;;;;7.43;5.22;;;;;;;;;;5037078;28;20021;-85
2023/12/19 06:03:02;;;;;;;9.82;5.35;;;;;;;;;;5041735;28;20045;-85
2023/12/19 06:05:27;;;;;;;10.27;5.00;;;;;;;;;;5038517;28;20060;-83
2023/12/19 06:07:53;;;;;;;10.25;5.22;;;;;;;;;;5049695;28;20492;-84
2023/12/19 06:10:19;;;;;;;9.30;4.60;;;;;;;;;;5049419;28;20017;-85
2023/12/19 06:12:46;;;;;;;9.13;4.50;;;;;;;;;;5046446;28;20052;-84
2023/12/19 06:15:13;;;;;;;6.55;4.40;;;;;;;;;;5031648;28;20419;-85
2023/12/19 06:17:43;;;;;;;6.28;4.55;;;;;;;;;;5053009;28;20029;-86
2023/12/19 06:20:10;;;;;;;6.75;4.60;;;;;;;;;;5051357;28;20033;-83
2023/12/19 06:22:36;;;;;;;6.93;4.45;;;;;;;;;;5051642;28;20029;-84
2023/12/19 06:25:02;;;;;;;8.15;4.57;;;;;;;;;;5033726;28;20126;-83
2023/12/19 06:27:28;;;;;;;8.93;4.40;;;;;;;;;;5033882;28;20109;-85
2023/12/19 06:29:57;;;;;;;9.45;4.90;;;;;;;;;;5052463;28;20486;-84
2023/12/19 06:32:23;;;;;;;8.70;4.50;;;;;;;;;;5052510;28;20033;-86
2023/12/19 06:34:49;;;;;;;7.25;4.30;;;;;;;;;;5051361;28;20082;-84
2023/12/19 06:37:15;;;;;;;7.70;4.60;;;;;;;;;;5051483;28;20079;-84
2023/12/19 06:39:42;;;;;;;8.57;4.68;;;;;;;;;;5051580;28;20024;-84
2023/12/19 06:42:08;;;;;;;10.90;4.55;;;;;;;;;;5051536;28;20074;-84
2023/12/19 06:44:34;;;;;;;5.65;4.43;;;;;;;;;;5051303;28;20442;-87
2023/12/19 06:47:00;;;;;;;9.98;4.70;;;;;;;;;;5051289;28;20088;-84
2023/12/19 06:49:26;;;;;;;6.18;4.18;;;;;;;;;;5052167;28;20027;-84
2023/12/19 06:51:53;;;;;;;5.40;4.10;;;;;;;;;;5051593;28;20118;-83
2023/12/19 06:54:19;;;;;;;12.77;4.95;;;;;;;;;;5033257;28;20507;-84
2023/12/19 06:56:45;;;;;;;8.70;4.60;;;;;;;;;;5051070;28;20057;-84
2023/12/19 06:59:11;;;;;;;7.88;4.70;;;9.30;99.90;;;;;;5051023;28;20017;-85
2023/12/19 07:01:36;;;;;;;9.98;4.82;;;10.40;99.90;;;;;;5050973;28;20112;-84
2023/12/19 07:04:03;;;;;;;6.32;4.10;;;10.50;99.90;;;;;;5051122;28;20052;-86
2023/12/19 07:06:29;;;;;;;6.68;4.00;;;9.50;99.90;;;;;;5051055;28;20031;-84
2023/12/19 07:08:55;;;;;;;8.48;4.85;;;10.50;99.90;;;;;;5051878;28;20029;-83
2023/12/19 07:11:21;;;;;;;9.32;4.20;;;9.90;99.90;;;;;;5050934;28;20403;-84
2023/12/19 07:13:47;;;;;;;8.80;4.30;;;10.50;99.90;;;;;;5050943;28;20032;-85
2023/12/19 07:16:14;;;;;;;6.03;4.03;;;10.20;99.90;;;;;;5050743;28;20033;-83
2023/12/19 07:18:40;;;;;;;8.07;4.43;;;9.60;99.90;;;;;;5050836;28;20029;-86
2023/12/19 07:21:07;;;;;;;9.45;4.40;;;9.70;99.90;;;;;;5032906;28;20473;-83
2023/12/19 07:23:32;;;;;;;9.63;4.40;;;9.80;99.90;;;;;;5032799;28;20029;-87
2023/12/19 07:26:01;;;;;;;7.95;4.03;;;;;;;;;;5051283;28;20500;-84
2023/12/19 07:28:28;;;;;;;8.40;5.38;;;;;;;;;;5050874;28;20021;-86
2023/12/19 07:30:59;;;;;;;9.18;4.82;;;;;;;;;;5051257;28;20033;-86
2023/12/19 07:33:27;;;;;;;5.32;3.95;;;;;;;;;;5033516;28;20507;-83
2023/12/19 07:35:52;;;;;;;8.60;4.18;;;9.00;99.90;;;;;;5050349;28;20108;-83
2023/12/19 07:38:18;;;;;;;8.65;4.18;;;9.00;99.90;;;;;;5050423;28;20048;-83
2023/12/19 07:40:43;;;;;;;9.52;3.80;;;9.10;99.90;;;;;;5050401;28;20037;-84
2023/12/19 07:43:09;;;;;;;6.35;4.10;;;9.20;99.90;;;;;;5050353;28;20487;-84
2023/12/19 07:45:35;;;;;;;6.82;3.92;;;9.20;99.90;;;;;;5050378;28;20096;-84
2023/12/19 07:48:02;;;;;;;6.60;3.97;;;;;;;;;;5050209;28;20035;-83
2023/12/19 07:50:30;;;;;;;9.52;4.32;;;9.60;99.90;;;;;;5033049;28;20032;-84
2023/12/19 07:52:55;;;;;;;8.38;4.18;;;9.90;99.90;;;;;;5051014;28;20520;-84
2023/12/19 07:55:21;;;;;;;6.90;3.92;;;9.30;99.90;;;;;;5050156;28;20056;-84
2023/12/19 07:57:47;;;;;;;7.78;3.63;;;9.80;99.90;;;;;;5050066;28;20087;-84
2023/12/19 08:00:13;;;;;;;8.48;4.03;;;9.40;99.90;;;;;;5032084;28;20050;-84
2023/12/19 08:02:40;;;;;;;6.18;3.70;;;;;;;;;;5049850;28;20028;-85
2023/12/19 08:05:08;;;;;;;6.68;3.90;;;9.60;99.90;;;;;;5049893;28;20025;-85
2023/12/19 08:07:35;;;;;;;7.43;3.95;;;10.20;99.90;;;;;;5032189;28;20436;-84
2023/12/19 08:10:04;;;;;;;6.20;3.97;;;;;;;;;;5050702;28;20556;-87
2023/12/19 08:12:29;;;;;;;7.10;4.10;;;9.50;99.90;;;;;;5051080;28;20392;-84
2023/12/19 08:14:55;;;;;;;8.65;3.95;;;9.50;99.90;;;;;;5049606;28;20476;-83
2023/12/19 08:17:20;;;;;;;11.80;3.90;;;10.70;99.90;;;;;;5049698;28;20052;-84
2023/12/19 08:19:46;;;;;;;7.80;3.72;;;10.50;99.90;;;;;;5049689;28;20503;-84
2023/12/19 08:22:12;;;;;;;6.18;3.80;;;10.10;99.90;;;;;;5049635;28;20039;-85
2023/12/19 08:24:37;;;;;;;9.98;3.67;;;9.60;99.90;;;;;;5049655;28;20060;-85
2023/12/19 08:27:03;;;;;;;8.60;4.05;;;9.50;99.90;;;;;;5049493;28;20132;-82
2023/12/19 08:29:29;;;;;;;7.10;3.60;;;9.70;99.90;;;;;;5050308;28;20036;-86
2023/12/19 08:31:55;;;;;;;8.07;3.58;;;10.00;99.90;;;;;;5049339;28;20392;-83
2023/12/19 08:34:20;;;;;;;6.57;3.83;;;9.80;99.90;;;;;;5049405;28;20021;-83
2023/12/19 08:36:46;;;;;;;4.75;3.55;;;10.40;99.90;;;;;;5049379;28;20073;-83
2023/12/19 08:39:12;;;;;;;6.45;3.60;;;;;;;;;;5049261;28;20022;-84
2023/12/19 08:41:37;;;;;;;6.00;3.40;;;9.70;99.90;;;;;;5049337;28;20480;-84
2023/12/19 08:44:04;;;;;;;6.53;3.30;;;10.80;99.90;;;;;;5049572;28;20044;-83
2023/12/19 08:46:32;;;;;;;5.90;3.47;;;9.60;99.90;;;;;;5050171;28;20100;-84
2023/12/19 08:48:59;;;;;;;4.93;3.60;;;;;;;;;;5031703;28;20029;-85
2023/12/19 08:51:27;;;;;;;7.07;3.38;;;;;;;;;;5048984;28;20044;-85
2023/12/19 08:53:54;;;;;;;4.93;3.42;;;;;;;;;;5049212;28;20031;-85
2023/12/19 08:56:22;;;;;;;9.73;3.17;;;;;;;;;;5049099;28;20025;-84
2023/12/19 08:58:49;;;;;;;6.82;3.50;;;9.90;99.90;;;;;;5048925;28;20021;-84
2023/12/19 09:01:14;;;;;;;4.50;3.17;;;10.50;99.90;;;;;;5048882;28;20112;-84
2023/12/19 09:03:40;;;;;;;4.47;2.95;;;10.50;99.90;;;;;;5031059;28;20044;-84
2023/12/19 09:06:06;;;;;;;7.93;3.35;;;11.20;99.90;;;;;;5048978;28;20029;-82
2023/12/19 09:08:32;;;;;;;4.25;2.72;;;10.40;99.90;;;;;;5049995;28;20017;-85
2023/12/19 09:10:58;;;;;;;7.22;2.88;;;11.20;99.90;;;;;;5048750;28;20405;-85
2023/12/19 09:13:23;;;;;;;4.18;2.97;;;11.10;99.90;;;;;;5049004;28;20495;-85
2023/12/19 09:15:49;;;;;;;8.75;3.25;;;11.10;99.90;;;;;;5049183;28;20082;-84
2023/12/19 09:18:15;;;;;;;5.55;2.97;;;10.60;99.90;;;;;;5048962;28;20033;-82
2023/12/19 09:20:40;;;;;;;6.88;3.28;;;11.10;99.90;;;;;;5031817;28;20065;-83
2023/12/19 09:23:06;;;;;;;6.32;2.70;;;11.20;99.90;;;;;;5032481;28;20013;-82
2023/12/19 09:25:32;;;;;;;3.92;2.83;;;11.30;99.90;;;;;;5052609;28;20029;-84
2023/12/19 09:27:57;;;;;;;11.50;3.28;;;11.20;99.90;;;;;;5049487;28;20032;-85
2023/12/19 09:30:23;;;;;;;5.65;3.03;;;11.50;99.90;;;;;;5048793;28;20125;-86
2023/12/19 09:32:49;;;;;;;5.38;2.70;;;11.00;99.90;;;;;;5048761;28;20505;-84
2023/12/19 09:35:14;;;;;;;5.80;2.78;;;11.30;99.90;;;;;;5048728;28;20040;-83
2023/12/19 09:37:40;;;;;;;6.38;2.67;;;11.30;99.90;;;;;;5048660;28;20017;-84
2023/12/19 09:40:19;;;;;;;6.00;3.10;;;11.20;99.90;;;;;;5049629;28;20017;-84
2023/12/19 09:42:45;;;;;;;8.95;2.78;;;11.30;99.90;;;;;;5048524;28;20021;-83
2023/12/19 09:45:12;;;;;;;8.68;2.65;;;11.00;99.90;;;;;;5048776;28;20108;-85
2023/12/19 09:47:42;;;;;;;6.55;2.80;;;11.60;99.90;;;;;;5031166;28;20384;-86
2023/12/19 09:50:17;;;;;;;6.90;3.03;;;;;;;;;;5031666;28;20025;-84
2023/12/19 09:52:45;;;;;;;6.60;3.00;;;;;;;;;;5052418;28;20053;-84
2023/12/19 09:55:13;;;;;;;;;;;;;;;;;;5052851;28;20032;-86
2023/12/19 09:57:41;;;;;;;;;;;;;;;;;;5052876;28;20003;-85
2023/12/19 10:00:13;;;;;;;5.43;2.90;;;;;;;;;;5053112;28;19907;-83
2023/12/19 10:02:42;;;;;;;7.68;3.15;;;;;;;;;;5052111;28;20107;-85
2023/12/19 10:05:08;;;;;;;;;;;;;;;;;;5053359;28;20032;-83
2023/12/19 10:07:37;;;;;;;6.75;2.70;;;;;;;;;;5034980;28;20007;-87
2023/12/19 10:10:07;;;;;;;5.88;2.90;;;;;;;;;;5053266;28;20027;-84
2023/12/19 10:12:37;;;;;;;11.13;3.00;;;;;;;;;;5052840;28;20045;-88
2023/12/19 10:15:13;;;;;;;5.75;2.53;;;;;;;;;;5052053;28;20021;-83
2023/12/19 10:17:43;;;;;;;5.88;2.78;;;;;;;;;;5052245;28;20047;-83
2023/12/19 10:20:12;;;;;;;5.18;2.72;;;;;;;;;;5052025;28;20108;-83
2023/12/19 10:22:38;;;;;;;8.20;2.78;;;11.40;99.90;;;;;;5034748;28;20116;-84
2023/12/19 10:25:07;;;;;;;7.28;2.60;;;;;;;;;;5052731;28;20423;-84
2023/12/19 10:27:39;;;;;;;4.35;2.50;;;;;;;;;;5034185;28;20373;-88
2023/12/19 10:30:22;;;;;;;6.68;2.90;;;;;;;;;;5052554;28;20100;-85
2023/12/19 10:32:51;;;;;;;5.82;2.63;;;;;;;;;;5051786;28;20048;-84
2023/12/19 10:35:19;;;;;;;5.25;2.28;;;11.60;99.90;;;;;;5033862;28;20074;-83
2023/12/19 10:37:52;;;;;;;9.17;3.00;;;;;;;;;;5051665;28;20021;-84
2023/12/19 10:40:21;;;;;;;6.68;2.50;;;;;;;;;;5051615;28;20427;-86
2023/12/19 10:43:06;;;;;;;4.85;2.58;;;;;;;;;;5051391;28;20459;-86
2023/12/19 10:45:44;;;;;;;6.43;2.83;;;;;;;;;;5033389;28;20051;-85
2023/12/19 10:48:11;;;;;;;6.15;2.58;;;;;;;;;;5033634;28;20031;-82
2023/12/19 10:50:49;;;;;;;4.95;2.70;;;;;;;;;;5052241;28;20017;-85
2023/12/19 10:53:18;;;;;;;4.20;2.40;;;;;;;;;;5033383;28;20033;-85
2023/12/19 10:55:52;;;;;;;7.43;2.67;;;;;;;;;;5051317;28;20024;-84
2023/12/19 10:58:22;;;;;;;4.95;2.70;;;;;;;;;;5051234;28;20146;-86
2023/12/19 11:01:00;;;;;;;9.75;2.80;;;;;;;;;;5050976;28;20029;-85
2023/12/19 11:03:43;;;;;;;5.60;2.80;;;;;;;;;;5050614;28;20029;-85
2023/12/19 11:06:17;;;;;;;6.90;2.70;;;;;;;;;;5052014;28;20098;-83
2023/12/19 11:09:03;;;;;;;11.13;2.90;;;;;;;;;;5051065;28;20031;-86
2023/12/19 11:11:44;;;;;;;6.15;2.58;;;;;;;;;;5050993;28;20078;-83
2023/12/19 11:14:15;;;;;;;7.18;2.90;;;;;;;;;;5051617;28;20040;-85
2023/12/19 11:16:54;;;;;;;5.20;2.50;;;;;;;;;;5033663;28;20527;-90
2023/12/19 11:19:31;;;;;;;9.23;2.78;;;;;;;;;;5050983;28;20155;-86
2023/12/19 11:22:15;;;;;;;4.97;2.45;;;;;;;;;;5050849;28;20103;-84
2023/12/19 11:24:52;;;;;;;9.88;2.75;;;12.10;99.90;;;;;;5051482;28;20120;-84
2023/12/19 11:27:25;;;;;;;6.40;2.47;;;12.30;99.90;;;;;;5050760;28;20044;-85
2023/12/19 11:29:56;;;;;;;4.38;2.42;;;;;;;;;;5050689;28;20025;-84
2023/12/19 11:32:28;;;;;;;7.67;2.53;;;12.10;99.90;;;;;;5032687;28;20035;-86
2023/12/19 11:35:08;;;;;;;5.93;2.72;;;11.80;99.90;;;;;;5050526;28;20520;-84
2023/12/19 11:37:35;;;;;;;7.40;2.75;;;;;;;;;;5050513;28;20025;-84
2023/12/19 11:40:01;;;;;;;9.35;2.80;;;11.90;99.90;;;;;;5050428;28;20029;-88
2023/12/19 11:42:38;;;;;;;6.88;3.20;;;11.80;99.90;;;;;;5050370;28;20389;-85
2023/12/19 11:45:19;;;;;;;10.77;3.27;;;;;;;;;;5050336;28;20075;-86
2023/12/19 11:47:49;;;;;;;9.18;2.92;;;;;;;;;;5050199;28;20279;-84
2023/12/19 11:50:46;;;;;;;4.38;2.60;;;;;;;;;;5050349;28;20546;-85
2023/12/19 11:53:13;;;;;;;6.82;3.05;;;;;;;;;;5051113;28;20495;-87
2023/12/19 11:55:40;;;;;;;9.82;2.50;;;12.20;99.90;;;;;;5050870;28;20102;-86
2023/12/19 11:58:10;;;;;;;7.80;2.60;;;;;;;;;;5050101;28;20017;-86
2023/12/19 12:00:39;;;;;;;6.40;2.40;;;;;;;;;;5032347;28;20521;-85
2023/12/19 12:03:09;;;;;;;6.45;2.83;;;;;;;;;;5049844;28;20435;-87
2023/12/19 12:05:39;;;;;;;9.80;2.88;;;;;;;;;;5050010;28;20025;-86
2023/12/19 12:08:05;;;;;;;6.95;2.67;;;;;;;;;;5049870;28;20047;-87
2023/12/19 12:10:37;;;;;;;6.93;3.35;;;;;;;;;;5049831;28;20028;-85
2023/12/19 12:13:05;;;;;;;7.95;2.88;;;;;;;;;;5049569;28;20065;-88
2023/12/19 12:15:35;;;;;;;8.10;2.55;;;;;;;;;;5031756;28;20462;-88
2023/12/19 12:18:11;;;;;;;11.30;2.90;;;;;;;;;;5050153;28;20077;-85
2023/12/19 12:20:42;;;;;;;7.22;3.33;;;;;;;;;;5032611;28;20060;-89
2023/12/19 12:23:10;;;;;;;13.98;2.90;;;;;;;;;;5033155;28;20021;-88
2023/12/19 12:25:45;;;;;;;8.05;2.92;;;;;;;;;;5051087;28;20116;-87
2023/12/19 12:28:17;;;;;;;6.53;2.80;;;;;;;;;;5050582;28;20100;-87
2023/12/19 12:30:44;;;;;;;9.00;3.47;;;;;;;;;;5032425;28;20036;-87
2023/12/19 12:33:13;;;;;;;7.75;2.95;;;;;;;;;;5049424;28;20025;-89
2023/12/19 12:35:48;;;;;;;7.40;2.60;;;;;;;;;;5031596;28;20095;-86
2023/12/19 12:38:22;;;;;;;9.40;2.70;;;;;;;;;;5032344;28;20108;-85
2023/12/19 12:41:00;;;;;;;9.05;2.95;;;;;;;;;;5049405;28;20028;-85
2023/12/19 12:43:33;;;;;;;10.35;2.80;;;12.50;99.90;;;;;;5049439;28;20423;-85
2023/12/19 12:46:14;;;;;;;9.07;3.05;;;12.50;99.90;;;;;;5049290;28;20048;-84
2023/12/19 12:48:53;;;;;;;7.70;2.92;;;12.60;99.90;;;;;;5049385;28;20496;-86
2023/12/19 12:51:22;;;;;;;8.00;2.83;;;12.40;99.90;;;;;;5049376;28;20036;-84
2023/12/19 12:53:58;;;;;;;7.53;2.88;;;12.40;99.90;;;;;;5031283;28;20037;-82
2023/12/19 12:56:36;;;;;;;6.75;2.70;;;;;;;;;;5049180;28;20033;-87
2023/12/19 12:59:10;;;;;;;8.32;2.70;;;;;;;;;;5049171;28;20039;-83
2023/12/19 13:01:46;;;;;;;9.13;2.80;;;;;;;;;;5048873;28;20037;-85
2023/12/19 13:04:17;;;;;;;4.45;2.45;;;;;;;;;;5050071;28;20384;-88
2023/12/19 13:06:47;;;;;;;9.02;3.03;;;;;;;;;;5049842;28;20055;-87
2023/12/19 13:09:19;;;;;;;9.10;2.78;;;;;;;;;;5050126;28;20021;-86
2023/12/19 13:11:47;;;;;;;7.78;2.40;;;;;;;;;;5031794;28;20116;-83
2023/12/19 13:14:16;;;;;;;8.63;2.90;;;12.60;99.90;;;;;;5049741;28;20029;-84
2023/12/19 13:16:42;;;;;;;10.05;3.15;;;12.70;99.90;;;;;;5048964;28;20313;-84
2023/12/19 13:19:09;;;;;;;7.10;3.10;;;12.90;99.90;;;;;;5048862;28;20758;-84
2023/12/19 13:21:34;;;;;;;11.15;2.95;;;13.10;99.90;;;;;;5048894;28;20492;-85
2023/12/19 13:24:01;;;;;;;7.38;2.80;;;;;;;;;;5048909;28;20025;-85
2023/12/19 13:26:33;;;;;;;13.73;2.90;;;;;;;;;;5034368;28;20427;-87
2023/12/19 13:29:02;;;;;;;9.43;2.80;;;;;;;;;;5052995;28;20024;-88
2023/12/19 13:31:29;;;;;;;9.27;3.00;;;12.30;99.90;;;;;;5035095;28;20033;-85
2023/12/19 13:33:57;;;;;;;9.95;3.10;;;;;;;;;;5052827;28;20025;-84
2023/12/19 13:36:23;;;;;;;9.98;2.63;;;;;;;;;;5034719;28;20033;-83
2023/12/19 13:38:49;;;;;;;8.77;2.88;;;;;;;;;;5035594;28;20099;-84
2023/12/19 13:41:18;;;;;;;9.23;2.75;;;12.90;99.90;;;;;;5053462;28;20029;-85
2023/12/19 13:43:44;;;;;;;13.40;3.22;;;12.80;99.90;;;;;;5052609;28;20423;-85
2023/12/19 13:46:11;;;;;;;9.10;2.80;;;;;;;;;;5052568;28;20029;-84
2023/12/19 13:48:37;;;;;;;11.40;2.50;;;12.40;99.90;;;;;;5052501;28;20029;-84
2023/12/19 13:51:03;;;;;;;16.75;2.70;;;12.90;99.90;;;;;;5052501;28;20108;-83
2023/12/19 13:53:29;;;;;;;11.25;2.70;;;12.70;99.90;;;;;;5052406;28;20029;-83
2023/12/19 13:55:55;;;;;;;11.43;3.15;;;13.00;99.90;;;;;;5052397;28;20029;-85
2023/12/19 13:58:22;;;;;;;10.43;2.50;;;12.90;99.90;;;;;;5052489;28;20024;-84
2023/12/19 14:00:51;;;;;;;18.88;3.33;;;;;;;;;;5035223;28;20071;-85
2023/12/19 14:03:17;;;;;;;7.82;2.83;;;12.70;99.90;;;;;;5052791;28;20033;-85
2023/12/19 14:05:43;;;;;;;8.93;2.60;;;;;;;;;;5034375;28;20083;-84
2023/12/19 14:08:11;;;;;;;10.90;2.90;;;;;;;;;;5052055;28;20032;-84